createdAt,value
2018-08-20T00:01:05.799Z,21.40
2018-08-20T00:02:41.727Z,25.00
2018-08-20T00:04:17.625Z,23.20
2018-08-20T00:05:55.844Z,22.20
2018-08-20T00:07:32.338Z,22.00
2018-08-20T00:09:07.692Z,19.20
2018-08-20T00:10:44.697Z,20.40
2018-08-20T00:12:21.586Z,21.00
2018-08-20T00:13:58.283Z,25.40
2018-08-20T00:15:34.008Z,14.60
2018-08-20T00:17:10.038Z,23.20
2018-08-20T00:18:47.707Z,20.20
2018-08-20T00:20:23.927Z,22.60
2018-08-20T00:21:59.241Z,23.40
2018-08-20T00:23:36.578Z,25.40
2018-08-20T00:25:14.320Z,20.40
2018-08-20T00:26:49.386Z,27.00
2018-08-20T00:28:27.318Z,23.40
2018-08-20T00:30:05.790Z,22.60
2018-08-20T00:31:42.051Z,21.80
2018-08-20T00:33:18.571Z,23.00
2018-08-20T00:34:54.255Z,22.40
2018-08-20T00:36:30.308Z,22.80
2018-08-20T00:38:06.281Z,18.40
2018-08-20T00:39:42.366Z,18.00
2018-08-20T00:41:17.792Z,19.40
2018-08-20T00:42:53.211Z,20.40
2018-08-20T00:44:28.838Z,21.00
2018-08-20T00:46:04.841Z,24.00
2018-08-20T00:47:39.950Z,23.20
2018-08-20T00:49:17.010Z,23.80
2018-08-20T00:50:52.122Z,16.20
2018-08-20T00:52:27.863Z,22.00
2018-08-20T00:54:04.681Z,23.40
2018-08-20T00:55:40.234Z,22.40
2018-08-20T00:57:16.498Z,22.00
2018-08-20T00:58:51.800Z,22.60
2018-08-20T01:00:27.606Z,21.40
2018-08-20T01:02:03.543Z,21.20
2018-08-20T01:03:38.978Z,23.40
2018-08-20T01:05:15.350Z,23.60
2018-08-20T01:06:50.524Z,22.60
2018-08-20T01:08:27.284Z,23.40
2018-08-20T01:10:02.707Z,20.00
2018-08-20T01:11:38.548Z,25.20
2018-08-20T01:13:13.965Z,18.00
2018-08-20T01:14:49.940Z,13.20
2018-08-20T01:16:26.847Z,18.60
2018-08-20T01:18:03.026Z,24.80
2018-08-20T01:19:39.809Z,20.80
2018-08-20T01:21:16.803Z,21.20
2018-08-20T01:22:53.828Z,21.80
2018-08-20T01:24:28.881Z,20.20
2018-08-20T01:26:04.009Z,21.40
2018-08-20T01:27:39.583Z,17.80
2018-08-20T01:29:14.852Z,21.60
2018-08-20T01:30:50.431Z,23.80
2018-08-20T01:32:26.125Z,18.80
2018-08-20T01:34:01.760Z,23.00
2018-08-20T01:35:37.258Z,22.00
2018-08-20T01:37:12.540Z,20.00
2018-08-20T01:38:48.258Z,19.40
2018-08-20T01:40:23.533Z,24.20
2018-08-20T01:41:58.939Z,18.00
2018-08-20T01:43:34.387Z,17.80
2018-08-20T01:45:10.010Z,19.40
2018-08-20T01:46:45.412Z,20.20
2018-08-20T01:48:20.835Z,18.00
2018-08-20T01:49:56.002Z,22.20
2018-08-20T01:51:31.403Z,19.80
2018-08-20T01:53:07.966Z,20.60
2018-08-20T01:54:43.306Z,18.00
2018-08-20T01:56:18.594Z,23.40
2018-08-20T01:57:53.980Z,23.20
2018-08-20T01:59:29.437Z,22.40
2018-08-20T02:01:05.189Z,23.00
2018-08-20T02:02:40.612Z,21.60
2018-08-20T02:04:15.988Z,22.20
2018-08-20T02:05:51.444Z,23.60
2018-08-20T02:07:26.764Z,18.80
2018-08-20T02:09:02.299Z,21.40
2018-08-20T02:10:37.786Z,18.00
2018-08-20T02:12:13.451Z,21.40
2018-08-20T02:13:48.714Z,20.20
2018-08-20T02:15:24.305Z,22.20
2018-08-20T02:17:00.033Z,19.20
2018-08-20T02:18:35.944Z,18.80
2018-08-20T02:20:11.452Z,22.80
2018-08-20T02:21:46.627Z,20.40
2018-08-20T02:23:22.034Z,17.80
2018-08-20T02:24:57.785Z,24.60
2018-08-20T02:26:33.104Z,18.40
2018-08-20T02:28:08.273Z,21.20
2018-08-20T02:29:43.531Z,22.40
2018-08-20T02:31:18.982Z,24.20
2018-08-20T02:32:54.601Z,28.20
2018-08-20T02:34:29.862Z,21.60
2018-08-20T02:36:05.119Z,19.60
2018-08-20T02:37:48.379Z,25.00
2018-08-20T02:39:23.842Z,24.00
2018-08-20T02:40:59.361Z,19.20
2018-08-20T02:42:34.978Z,23.60
2018-08-20T02:44:11.270Z,20.40
2018-08-20T02:45:46.672Z,22.60
2018-08-20T02:47:21.916Z,24.80
2018-08-20T02:48:57.581Z,24.60
2018-08-20T02:50:33.060Z,20.60
2018-08-20T02:52:08.288Z,22.80
2018-08-20T02:53:43.446Z,22.40
2018-08-20T02:55:18.772Z,23.60
2018-08-20T02:56:54.773Z,27.60
2018-08-20T02:58:30.266Z,16.60
2018-08-20T03:00:15.742Z,18.60
2018-08-20T03:01:51.129Z,26.60
2018-08-20T03:03:27.210Z,25.20
2018-08-20T03:05:02.860Z,26.60
2018-08-20T03:06:39.330Z,23.20
2018-08-20T03:08:15.372Z,23.40
2018-08-20T03:09:50.762Z,14.00
2018-08-20T03:11:26.182Z,25.00
2018-08-20T03:13:01.438Z,17.60
2018-08-20T03:14:36.402Z,26.20
2018-08-20T03:16:12.527Z,23.00
2018-08-20T03:17:48.470Z,21.20
2018-08-20T03:19:23.750Z,23.60
2018-08-20T03:20:58.856Z,23.00
2018-08-20T03:22:34.059Z,27.40
2018-08-20T03:24:09.540Z,23.80
2018-08-20T03:25:45.050Z,25.20
2018-08-20T03:27:20.418Z,23.80
2018-08-20T03:28:55.922Z,22.60
2018-08-20T03:30:31.195Z,21.40
2018-08-20T03:32:06.595Z,19.00
2018-08-20T03:33:44.801Z,17.40
2018-08-20T03:35:21.126Z,26.00
2018-08-20T03:36:57.083Z,24.20
2018-08-20T03:38:32.942Z,22.00
2018-08-20T03:40:10.215Z,22.00
2018-08-20T03:41:45.205Z,25.80
2018-08-20T03:43:20.605Z,14.20
2018-08-20T03:44:55.931Z,25.80
2018-08-20T03:46:31.119Z,27.80
2018-08-20T03:48:07.851Z,23.60
2018-08-20T03:49:43.212Z,16.60
2018-08-20T03:51:18.319Z,28.00
2018-08-20T03:52:53.486Z,23.00
2018-08-20T03:54:29.315Z,27.80
2018-08-20T03:56:04.606Z,27.60
2018-08-20T03:57:40.548Z,29.80
2018-08-20T03:59:30.164Z,25.80
2018-08-20T04:01:05.546Z,28.80
2018-08-20T04:02:40.787Z,26.60
2018-08-20T04:04:17.831Z,12.00
2018-08-20T04:05:53.203Z,24.80
2018-08-20T04:07:28.391Z,26.00
2018-08-20T04:09:03.800Z,25.00
2018-08-20T04:10:39.255Z,29.20
2018-08-20T04:12:15.802Z,24.80
2018-08-20T04:13:51.180Z,31.20
2018-08-20T04:15:26.532Z,23.60
2018-08-20T04:17:02.088Z,25.80
2018-08-20T04:18:38.029Z,28.20
2018-08-20T04:20:13.371Z,24.40
2018-08-20T04:21:48.895Z,27.80
2018-08-20T04:23:24.091Z,23.20
2018-08-20T04:24:59.486Z,26.80
2018-08-20T04:26:35.142Z,28.20
2018-08-20T04:28:11.450Z,26.00
2018-08-20T04:29:47.389Z,28.00
2018-08-20T04:31:22.661Z,35.40
2018-08-20T04:32:58.945Z,34.40
2018-08-20T04:34:34.601Z,30.20
2018-08-20T04:36:09.892Z,28.00
2018-08-20T04:37:45.454Z,29.20
2018-08-20T04:39:21.090Z,30.40
2018-08-20T04:40:57.148Z,32.20
2018-08-20T04:42:33.023Z,30.60
2018-08-20T04:44:09.090Z,37.80
2018-08-20T04:45:44.307Z,31.60
2018-08-20T04:47:19.555Z,31.80
2018-08-20T04:48:55.224Z,34.40
2018-08-20T04:50:32.291Z,37.20
2018-08-20T04:52:09.219Z,34.40
2018-08-20T04:53:45.055Z,34.40
2018-08-20T04:55:20.759Z,29.60
2018-08-20T04:56:57.141Z,38.80
2018-08-20T04:58:33.549Z,26.80
2018-08-20T05:00:12.680Z,21.60
2018-08-20T05:01:48.294Z,37.00
2018-08-20T05:03:24.100Z,30.80
2018-08-20T05:05:00.004Z,29.20
2018-08-20T05:06:35.123Z,30.00
2018-08-20T05:08:10.505Z,28.80
2018-08-20T05:09:46.064Z,35.80
2018-08-20T05:11:21.451Z,30.80
2018-08-20T05:12:57.007Z,20.40
2018-08-20T05:14:32.438Z,30.00
2018-08-20T05:16:07.790Z,31.20
2018-08-20T05:17:44.547Z,28.80
2018-08-20T05:19:20.716Z,29.40
2018-08-20T05:20:56.346Z,30.40
2018-08-20T05:22:31.687Z,28.80
2018-08-20T05:24:07.257Z,34.80
2018-08-20T05:25:42.557Z,31.60
2018-08-20T05:27:18.946Z,32.40
2018-08-20T05:28:55.528Z,28.40
2018-08-20T05:30:30.879Z,29.40
2018-08-20T05:32:06.214Z,30.00
2018-08-20T05:33:41.803Z,30.80
2018-08-20T05:35:17.369Z,26.40
2018-08-20T05:36:52.463Z,27.80
2018-08-20T05:38:28.202Z,24.00
2018-08-20T05:40:03.877Z,32.60
2018-08-20T05:41:40.318Z,26.20
2018-08-20T05:43:15.820Z,22.80
2018-08-20T05:44:51.364Z,27.00
2018-08-20T05:46:28.243Z,27.40
2018-08-20T05:48:05.916Z,30.20
2018-08-20T05:49:42.575Z,34.60
2018-08-20T05:51:20.816Z,30.00
2018-08-20T05:52:58.639Z,28.80
2018-08-20T05:54:34.219Z,28.60
2018-08-20T05:56:11.472Z,25.80
2018-08-20T05:57:49.068Z,23.40
2018-08-20T05:59:26.589Z,26.40
2018-08-20T06:01:03.528Z,29.40
2018-08-20T06:02:40.874Z,30.60
2018-08-20T06:04:16.986Z,27.00
2018-08-20T06:05:54.625Z,23.00
2018-08-20T06:07:31.563Z,31.00
2018-08-20T06:09:09.520Z,31.80
2018-08-20T06:10:45.144Z,26.00
2018-08-20T06:12:21.587Z,26.60
2018-08-20T06:13:56.799Z,23.80
2018-08-20T06:15:32.443Z,26.40
2018-08-20T06:17:07.876Z,31.20
2018-08-20T06:18:44.446Z,23.00
2018-08-20T06:20:20.976Z,23.80
2018-08-20T06:22:00.173Z,26.00
2018-08-20T06:23:36.587Z,32.40
2018-08-20T06:25:13.135Z,24.40
2018-08-20T06:26:51.601Z,30.40
2018-08-20T06:28:29.390Z,22.60
2018-08-20T06:30:08.846Z,23.00
2018-08-20T06:31:44.510Z,23.80
2018-08-20T06:33:20.531Z,29.20
2018-08-20T06:34:56.237Z,22.60
2018-08-20T06:36:32.746Z,24.60
2018-08-20T06:38:08.899Z,24.00
2018-08-20T06:39:45.190Z,21.00
2018-08-20T06:41:21.283Z,29.00
2018-08-20T06:42:57.594Z,21.80
2018-08-20T06:44:35.406Z,29.60
2018-08-20T06:46:11.530Z,20.80
2018-08-20T06:47:49.334Z,25.20
2018-08-20T06:49:25.670Z,25.40
2018-08-20T06:51:01.526Z,23.60
2018-08-20T06:52:37.368Z,25.60
2018-08-20T06:54:13.389Z,26.80
2018-08-20T06:55:49.448Z,26.20
2018-08-20T06:57:26.288Z,22.20
2018-08-20T06:59:02.933Z,22.80
2018-08-20T07:00:40.829Z,22.20
2018-08-20T07:02:18.180Z,25.80
2018-08-20T07:03:54.021Z,24.80
2018-08-20T07:05:30.619Z,23.00
2018-08-20T07:07:06.837Z,25.40
2018-08-20T07:08:44.034Z,24.20
2018-08-20T07:10:19.636Z,31.40
2018-08-20T07:11:58.139Z,30.60
2018-08-20T07:13:36.417Z,36.20
2018-08-20T07:15:16.768Z,31.00
2018-08-20T07:16:53.577Z,28.00
2018-08-20T07:18:30.547Z,35.20
2018-08-20T07:20:09.775Z,33.80
2018-08-20T07:21:45.240Z,35.40
2018-08-20T07:23:21.927Z,28.60
2018-08-20T07:24:59.363Z,29.80
2018-08-20T07:26:35.423Z,26.60
2018-08-20T07:28:12.045Z,23.40
2018-08-20T07:29:48.340Z,25.20
2018-08-20T07:31:25.483Z,26.60
2018-08-20T07:33:02.301Z,25.00
2018-08-20T07:34:38.828Z,23.60
2018-08-20T07:36:14.760Z,22.60
2018-08-20T07:37:50.537Z,28.60
2018-08-20T07:39:27.929Z,26.80
2018-08-20T07:41:03.953Z,25.60
2018-08-20T07:42:39.950Z,22.60
2018-08-20T07:44:16.712Z,24.00
2018-08-20T07:45:52.909Z,26.60
2018-08-20T07:47:28.581Z,30.60
2018-08-20T07:49:10.261Z,26.40
2018-08-20T07:50:46.025Z,31.80
2018-08-20T07:52:24.036Z,29.80
2018-08-20T07:54:01.816Z,30.80
2018-08-20T07:55:37.921Z,31.40
2018-08-20T07:57:14.262Z,31.60
2018-08-20T07:58:52.358Z,28.40
2018-08-20T08:00:29.269Z,28.60
2018-08-20T08:02:06.615Z,28.40
2018-08-20T08:03:42.588Z,29.00
2018-08-20T08:05:19.386Z,23.00
2018-08-20T08:06:56.122Z,31.00
2018-08-20T08:08:33.068Z,33.00
2018-08-20T08:10:12.320Z,38.60
2018-08-20T08:11:48.537Z,28.20
2018-08-20T08:13:24.834Z,23.80
2018-08-20T08:15:02.693Z,30.80
2018-08-20T08:16:39.041Z,29.00
2018-08-20T08:18:14.246Z,34.60
2018-08-20T08:19:54.707Z,38.00
2018-08-20T08:21:33.775Z,35.80
2018-08-20T08:23:11.943Z,39.20
2018-08-20T08:24:49.062Z,29.60
2018-08-20T08:26:27.478Z,36.40
2018-08-20T08:28:03.408Z,33.20
2018-08-20T08:29:39.231Z,35.00
2018-08-20T08:31:17.760Z,25.40
2018-08-20T08:32:54.332Z,24.80
2018-08-20T08:34:31.786Z,31.60
2018-08-20T08:36:10.533Z,30.80
2018-08-20T08:37:46.894Z,28.80
2018-08-20T08:39:23.841Z,33.60
2018-08-20T08:40:59.772Z,35.40
2018-08-20T08:42:35.564Z,34.40
2018-08-20T08:44:13.623Z,37.40
2018-08-20T08:45:49.835Z,32.20
2018-08-20T08:47:26.224Z,30.00
2018-08-20T08:49:02.469Z,31.20
2018-08-20T08:50:38.300Z,30.80
2018-08-20T08:52:14.582Z,35.80
2018-08-20T08:53:50.507Z,38.20
2018-08-20T08:55:26.951Z,35.80
2018-08-20T08:57:03.487Z,35.80
2018-08-20T08:58:39.200Z,33.60
2018-08-20T09:00:19.709Z,27.00
2018-08-20T09:01:56.042Z,34.40
2018-08-20T09:03:34.967Z,37.80
2018-08-20T09:05:12.926Z,37.20
2018-08-20T09:06:49.339Z,27.40
2018-08-20T09:08:25.759Z,31.60
2018-08-20T09:10:02.174Z,38.60
2018-08-20T09:11:38.572Z,37.60
2018-08-20T09:13:19.185Z,29.60
2018-08-20T09:14:58.399Z,29.80
2018-08-20T09:16:40.762Z,28.40
2018-08-20T09:18:19.645Z,32.80
2018-08-20T09:22:13.056Z,31.20
2018-08-20T09:23:50.400Z,40.40
2018-08-20T09:25:26.703Z,41.00
2018-08-20T09:27:03.311Z,32.60
2018-08-20T09:28:39.469Z,32.20
2018-08-20T09:30:22.674Z,26.60
2018-08-20T09:31:59.440Z,33.80
2018-08-20T09:33:35.101Z,30.80
2018-08-20T09:35:11.318Z,20.40
2018-08-20T09:36:48.253Z,35.40
2018-08-20T09:38:24.414Z,27.60
2018-08-20T09:40:01.265Z,29.20
2018-08-20T09:41:38.704Z,23.60
2018-08-20T09:43:15.293Z,33.80
2018-08-20T09:44:51.797Z,33.60
2018-08-20T09:46:27.504Z,28.40
2018-08-20T09:48:03.107Z,39.40
2018-08-20T09:49:39.620Z,29.60
2018-08-20T09:51:15.905Z,35.80
2018-08-20T09:52:52.000Z,32.20
2018-08-20T09:54:28.737Z,24.00
2018-08-20T09:56:06.055Z,36.00
2018-08-20T09:57:42.395Z,25.80
2018-08-20T09:59:18.832Z,22.20
2018-08-20T10:00:55.542Z,32.60
2018-08-20T10:02:32.595Z,31.20
2018-08-20T10:04:08.431Z,27.20
2018-08-20T10:05:44.697Z,20.20
2018-08-20T10:07:20.675Z,42.00
2018-08-20T10:08:57.467Z,30.60
2018-08-20T10:10:37.216Z,40.00
2018-08-20T10:12:12.503Z,34.60
2018-08-20T10:13:48.666Z,40.00
2018-08-20T10:15:26.727Z,33.40
2018-08-20T10:17:05.285Z,33.40
2018-08-20T10:18:44.199Z,32.00
2018-08-20T10:20:20.672Z,38.00
2018-08-20T10:21:57.555Z,38.80
2018-08-20T10:23:33.280Z,44.00
2018-08-20T10:25:09.099Z,42.20
2018-08-20T10:26:46.120Z,27.80
2018-08-20T10:28:21.992Z,32.00
2018-08-20T10:29:58.150Z,34.00
2018-08-20T10:31:36.000Z,40.60
2018-08-20T10:33:18.031Z,28.40
2018-08-20T10:34:55.798Z,34.00
2018-08-20T10:36:32.306Z,29.80
2018-08-20T10:38:12.076Z,33.20
2018-08-20T10:39:48.247Z,21.20
2018-08-20T10:41:23.803Z,35.60
2018-08-20T10:43:10.882Z,37.40
2018-08-20T10:44:54.863Z,28.60
2018-08-20T10:46:32.511Z,34.80
2018-08-20T10:48:11.816Z,28.00
2018-08-20T10:49:49.981Z,28.80
2018-08-20T10:51:28.256Z,28.40
2018-08-20T10:53:05.534Z,29.00
2018-08-20T10:54:41.142Z,20.20
2018-08-20T10:56:18.495Z,25.60
2018-08-20T10:57:55.343Z,30.00
2018-08-20T10:59:39.798Z,26.00
2018-08-20T11:01:18.083Z,29.20
2018-08-20T11:02:55.085Z,29.40
2018-08-20T11:04:41.216Z,26.40
2018-08-20T11:06:20.462Z,27.20
2018-08-20T11:07:58.612Z,23.40
2018-08-20T11:09:38.957Z,31.80
2018-08-20T11:11:18.766Z,23.60
2018-08-20T11:12:57.801Z,20.60
2018-08-20T11:14:34.996Z,15.20
2018-08-20T11:16:13.033Z,20.60
2018-08-20T11:17:50.102Z,21.00
2018-08-20T11:19:26.878Z,18.80
2018-08-20T11:21:03.267Z,14.40
2018-08-20T11:22:45.044Z,13.40
2018-08-20T11:24:20.981Z,12.20
2018-08-20T11:25:57.245Z,13.20
2018-08-20T11:27:33.911Z,16.80
2018-08-20T11:29:12.817Z,21.60
2018-08-20T11:30:48.520Z,20.60
2018-08-20T11:32:26.548Z,21.40
2018-08-20T11:34:03.241Z,18.80
2018-08-20T11:35:39.127Z,18.20
2018-08-20T11:37:16.807Z,23.00
2018-08-20T11:38:55.516Z,17.40
2018-08-20T11:40:31.824Z,22.20
2018-08-20T11:42:09.001Z,16.00
2018-08-20T11:43:49.250Z,21.40
2018-08-20T11:45:27.388Z,19.60
2018-08-20T11:47:05.376Z,20.20
2018-08-20T11:48:41.610Z,19.80
2018-08-20T11:50:20.432Z,16.40
2018-08-20T11:51:56.598Z,23.80
2018-08-20T11:53:39.056Z,16.60
2018-08-20T11:55:18.969Z,17.00
2018-08-20T11:56:59.536Z,14.60
2018-08-20T11:58:37.412Z,15.80
2018-08-20T12:00:18.551Z,18.20
2018-08-20T12:01:57.465Z,21.40
2018-08-20T12:03:34.255Z,17.20
2018-08-20T12:06:54.931Z,18.40
2018-08-20T12:08:34.822Z,13.40
2018-08-20T12:10:13.907Z,14.00
2018-08-20T12:11:51.279Z,14.80
2018-08-20T12:13:31.346Z,16.00
2018-08-20T12:15:10.545Z,15.20
2018-08-20T12:16:49.645Z,15.60
2018-08-20T12:18:26.035Z,16.60
2018-08-20T12:20:08.697Z,20.00
2018-08-20T12:21:47.813Z,18.00
2018-08-20T12:23:24.679Z,14.00
2018-08-20T12:25:06.510Z,13.40
2018-08-20T12:26:42.304Z,10.20
2018-08-20T12:28:22.682Z,15.20
2018-08-20T12:30:09.155Z,17.60
2018-08-20T12:31:46.341Z,18.40
2018-08-20T12:33:22.620Z,13.00
2018-08-20T12:34:58.805Z,6.00
2018-08-20T12:36:36.780Z,17.00
2018-08-20T12:38:13.536Z,13.00
2018-08-20T12:39:54.543Z,16.40
2018-08-20T12:41:37.729Z,16.80
2018-08-20T12:43:15.608Z,13.20
2018-08-20T12:44:52.255Z,16.80
2018-08-20T12:46:30.055Z,7.80
2018-08-20T12:48:08.154Z,13.40
2018-08-20T12:49:44.542Z,14.40
2018-08-20T12:51:21.676Z,16.60
2018-08-20T12:52:58.755Z,17.00
2018-08-20T12:54:36.369Z,15.20
2018-08-20T12:56:20.340Z,20.60
2018-08-20T12:57:57.987Z,15.80
2018-08-20T12:59:34.247Z,21.20
2018-08-20T13:01:12.725Z,16.40
2018-08-20T13:02:49.420Z,21.00
2018-08-20T13:04:28.518Z,15.80
2018-08-20T13:06:05.237Z,15.60
2018-08-20T13:07:43.162Z,18.00
2018-08-20T13:09:18.736Z,17.20
2018-08-20T13:10:54.322Z,19.00
2018-08-20T13:12:33.144Z,17.20
2018-08-20T13:14:16.373Z,16.20
2018-08-20T13:15:54.966Z,21.20
2018-08-20T13:17:30.822Z,17.80
2018-08-20T13:19:12.421Z,13.60
2018-08-20T13:20:51.182Z,14.80
2018-08-20T13:22:29.356Z,18.00
2018-08-20T13:24:05.682Z,17.60
2018-08-20T13:25:43.501Z,17.40
2018-08-20T13:27:19.352Z,18.40
2018-08-20T13:28:55.781Z,19.00
2018-08-20T13:30:33.227Z,15.60
2018-08-20T13:32:09.481Z,15.40
2018-08-20T13:33:45.143Z,12.20
2018-08-20T13:35:22.682Z,19.00
2018-08-20T13:37:00.816Z,19.60
2018-08-20T13:38:36.158Z,17.40
2018-08-20T13:40:11.874Z,19.80
2018-08-20T13:41:48.079Z,19.60
2018-08-20T13:43:25.065Z,17.60
2018-08-20T13:45:02.856Z,18.00
2018-08-20T13:46:39.885Z,18.80
2018-08-20T13:48:21.329Z,19.00
2018-08-20T13:50:04.187Z,16.80
2018-08-20T13:51:40.209Z,14.80
2018-08-20T13:53:20.337Z,19.80
2018-08-20T13:54:55.827Z,19.60
2018-08-20T13:56:34.462Z,17.60
2018-08-20T13:58:21.692Z,17.40
2018-08-20T14:00:05.125Z,18.00
2018-08-20T14:01:45.299Z,17.00
2018-08-20T14:05:23.292Z,12.40
2018-08-20T14:07:07.228Z,16.00
2018-08-20T14:08:49.833Z,16.60
2018-08-20T14:10:29.524Z,15.80
2018-08-20T14:12:09.326Z,16.40
2018-08-20T14:13:50.367Z,14.00
2018-08-20T14:15:25.995Z,19.80
2018-08-20T14:17:02.997Z,15.40
2018-08-20T14:18:38.600Z,16.40
2018-08-20T14:20:21.855Z,18.00
2018-08-20T14:22:02.802Z,20.20
2018-08-20T14:23:39.771Z,12.60
2018-08-20T14:25:46.667Z,16.80
2018-08-20T14:27:26.353Z,13.60
2018-08-20T14:29:04.515Z,19.00
2018-08-20T14:30:44.330Z,16.20
2018-08-20T14:32:21.558Z,15.00
2018-08-20T14:34:03.685Z,14.20
2018-08-20T14:35:40.648Z,17.60
2018-08-20T14:37:18.433Z,13.80
2018-08-20T14:38:56.435Z,16.00
2018-08-20T14:40:53.418Z,16.40
2018-08-20T14:42:34.826Z,15.80
2018-08-20T14:44:15.152Z,13.60
2018-08-20T14:45:56.578Z,15.80
2018-08-20T14:47:34.139Z,13.20
2018-08-20T14:49:10.529Z,18.00
2018-08-20T14:50:47.870Z,62.60
2018-08-20T14:52:26.043Z,19.40
2018-08-20T14:54:02.924Z,20.80
2018-08-20T14:55:43.103Z,23.60
2018-08-20T14:57:23.203Z,14.00
2018-08-20T14:58:59.605Z,11.80
2018-08-20T15:00:38.559Z,16.00
2018-08-20T15:02:17.422Z,15.00
2018-08-20T15:03:53.792Z,13.40
2018-08-20T15:05:32.636Z,15.20
2018-08-20T15:07:16.836Z,18.20
2018-08-20T15:08:57.704Z,17.40
2018-08-20T15:10:35.713Z,20.20
2018-08-20T15:12:13.606Z,14.00
2018-08-20T15:13:58.305Z,19.80
2018-08-20T15:15:37.452Z,20.00
2018-08-20T15:17:15.401Z,19.20
2018-08-20T15:18:52.629Z,17.20
2018-08-20T15:20:30.374Z,17.80
2018-08-20T15:22:10.570Z,14.20
2018-08-20T15:23:51.146Z,16.80
2018-08-20T15:25:35.277Z,18.60
2018-08-20T15:27:17.267Z,14.40
2018-08-20T15:28:56.611Z,22.80
2018-08-20T15:30:36.165Z,26.40
2018-08-20T15:32:32.388Z,21.00
2018-08-20T15:34:21.246Z,22.40
2018-08-20T15:36:06.225Z,23.40
2018-08-20T15:37:49.134Z,24.80
2018-08-20T15:39:28.076Z,25.00
2018-08-20T15:41:08.590Z,22.20
2018-08-20T15:42:49.800Z,25.20
2018-08-20T15:44:34.576Z,24.00
2018-08-20T15:48:17.417Z,27.00
2018-08-20T15:49:55.759Z,25.60
2018-08-20T15:51:40.682Z,24.00
2018-08-20T15:53:24.482Z,25.60
2018-08-20T15:55:13.701Z,23.60
2018-08-20T15:57:10.503Z,34.40
2018-08-20T15:58:48.309Z,24.80
2018-08-20T16:00:27.681Z,23.00
2018-08-20T16:02:09.650Z,23.40
2018-08-20T16:03:45.748Z,26.20
2018-08-20T16:05:27.811Z,27.60
2018-08-20T16:07:05.242Z,28.40
2018-08-20T16:08:48.979Z,23.80
2018-08-20T16:10:25.621Z,24.20
2018-08-20T16:12:05.676Z,19.60
2018-08-20T16:13:41.730Z,25.00
2018-08-20T16:15:19.196Z,22.80
2018-08-20T16:16:55.952Z,29.20
2018-08-20T16:18:36.157Z,26.00
2018-08-20T16:20:16.856Z,26.80
2018-08-20T16:22:08.703Z,28.60
2018-08-20T16:23:54.442Z,22.20
2018-08-20T16:25:39.174Z,22.00
2018-08-20T16:27:21.888Z,22.40
2018-08-20T16:29:03.652Z,26.60
2018-08-20T16:30:44.779Z,22.40
2018-08-20T16:32:22.940Z,27.00
2018-08-20T16:34:00.525Z,23.80
2018-08-20T16:35:41.226Z,23.80
2018-08-20T16:37:18.424Z,23.80
2018-08-20T16:40:41.313Z,26.20
2018-08-20T16:42:19.248Z,24.60
2018-08-20T16:44:02.954Z,22.80
2018-08-20T16:45:40.314Z,21.80
2018-08-20T16:47:30.558Z,23.80
2018-08-20T16:49:26.442Z,18.80
2018-08-20T16:51:05.069Z,16.60
2018-08-20T16:52:47.158Z,18.40
2018-08-20T16:54:35.696Z,20.40
2018-08-20T16:56:28.080Z,24.60
2018-08-20T16:58:15.555Z,16.00
2018-08-20T16:59:55.100Z,24.00
2018-08-20T17:01:35.986Z,20.20
2018-08-20T17:03:23.266Z,21.40
2018-08-20T17:05:09.676Z,22.60
2018-08-20T17:07:04.686Z,19.80
2018-08-20T17:08:47.100Z,21.20
2018-08-20T17:10:27.074Z,23.80
2018-08-20T17:13:59.519Z,24.60
2018-08-20T17:15:47.646Z,22.20
2018-08-20T17:17:31.284Z,21.60
2018-08-20T17:19:14.754Z,22.80
2018-08-20T17:20:56.265Z,21.00
2018-08-20T17:22:37.839Z,23.00
2018-08-20T17:24:17.740Z,18.80
2018-08-20T17:25:58.363Z,20.20
2018-08-20T17:27:33.979Z,19.80
2018-08-20T17:29:13.385Z,23.00
2018-08-20T17:30:56.720Z,25.80
2018-08-20T17:32:39.854Z,22.40
2018-08-20T17:34:18.492Z,22.00
2018-08-20T17:35:57.633Z,22.40
2018-08-20T17:37:38.303Z,24.60
2018-08-20T17:39:16.133Z,21.40
2018-08-20T17:40:55.330Z,18.20
2018-08-20T17:42:33.866Z,28.00
2018-08-20T17:44:22.081Z,22.20
2018-08-20T17:46:05.031Z,20.80
2018-08-20T17:47:46.313Z,18.60
2018-08-20T17:49:31.061Z,23.60
2018-08-20T17:51:12.604Z,23.80
2018-08-20T17:54:46.728Z,24.80
2018-08-20T17:56:27.547Z,19.80
2018-08-20T17:58:09.205Z,23.00
2018-08-20T17:59:46.315Z,25.00
2018-08-20T18:01:30.173Z,19.60
2018-08-20T18:03:12.383Z,19.60
2018-08-20T18:04:53.005Z,14.80
2018-08-20T18:06:48.511Z,17.80
2018-08-20T18:08:27.219Z,17.80
2018-08-20T18:10:08.519Z,19.20
2018-08-20T18:11:58.716Z,15.20
2018-08-20T18:13:52.159Z,24.60
2018-08-20T18:15:44.156Z,23.60
2018-08-20T18:17:21.621Z,20.00
2018-08-20T18:19:00.433Z,25.60
2018-08-20T18:20:42.103Z,19.00
2018-08-20T18:22:31.188Z,23.20
2018-08-20T18:24:10.736Z,18.20
2018-08-20T18:25:49.874Z,25.80
2018-08-20T18:27:42.490Z,15.80
2018-08-20T18:29:23.260Z,22.80
2018-08-20T18:31:12.665Z,21.00
2018-08-20T18:32:51.957Z,21.20
2018-08-20T18:34:28.895Z,19.40
2018-08-20T18:36:10.142Z,17.40
2018-08-20T18:37:52.466Z,19.80
2018-08-20T18:39:31.973Z,18.80
2018-08-20T18:41:09.770Z,19.00
2018-08-20T18:42:49.834Z,21.80
2018-08-20T18:44:26.236Z,23.60
2018-08-20T18:46:02.137Z,21.60
2018-08-20T18:47:43.365Z,22.40
2018-08-20T18:49:20.101Z,24.20
2018-08-20T18:50:58.894Z,23.20
2018-08-20T18:52:38.055Z,20.40
2018-08-20T18:54:14.949Z,19.20
2018-08-20T18:56:02.522Z,18.40
2018-08-20T18:57:39.180Z,18.00
2018-08-20T18:59:17.607Z,17.60
2018-08-20T19:00:56.550Z,23.00
2018-08-20T19:03:00.624Z,21.00
2018-08-20T19:04:46.002Z,19.80
2018-08-20T19:06:37.117Z,20.20
2018-08-20T19:08:20.581Z,18.40
2018-08-20T19:09:56.326Z,18.00
2018-08-20T19:11:36.619Z,21.20
2018-08-20T19:13:14.341Z,15.20
2018-08-20T19:14:54.788Z,19.00
2018-08-20T19:16:35.302Z,22.20
2018-08-20T19:18:20.754Z,19.40
2018-08-20T19:19:57.376Z,22.80
2018-08-20T19:21:39.843Z,17.40
2018-08-20T19:23:19.970Z,24.00
2018-08-20T19:24:58.056Z,17.60
2018-08-20T19:26:36.744Z,18.00
2018-08-20T19:28:24.660Z,14.20
2018-08-20T19:30:22.520Z,16.80
2018-08-20T19:32:04.570Z,15.20
2018-08-20T19:33:45.397Z,21.40
2018-08-20T19:35:23.193Z,19.80
2018-08-20T19:37:00.732Z,22.20
2018-08-20T19:38:36.195Z,17.60
2018-08-20T19:40:15.935Z,18.60
2018-08-20T19:41:55.290Z,19.80
2018-08-20T19:43:39.793Z,17.80
2018-08-20T19:45:34.697Z,19.80
2018-08-20T19:47:22.835Z,16.20
2018-08-20T19:49:09.459Z,18.00
2018-08-20T19:50:50.553Z,16.60
2018-08-20T19:52:28.821Z,18.40
2018-08-20T19:54:05.609Z,19.80
2018-08-20T19:55:59.993Z,20.40
2018-08-20T19:57:41.884Z,14.40
2018-08-20T20:01:17.287Z,17.00
2018-08-20T20:02:54.071Z,16.00
2018-08-20T20:04:35.550Z,21.20
2018-08-20T20:06:14.738Z,22.00
2018-08-20T20:08:02.760Z,20.40
2018-08-20T20:09:45.954Z,19.00
2018-08-20T20:11:29.096Z,20.20
2018-08-20T20:13:07.785Z,20.20
2018-08-20T20:14:48.478Z,17.00
2018-08-20T20:16:37.674Z,22.40
2018-08-20T20:18:19.377Z,16.80
2018-08-20T20:20:00.518Z,20.60
2018-08-20T20:21:42.146Z,19.00
2018-08-20T20:23:18.798Z,18.40
2018-08-20T20:25:01.453Z,21.20
2018-08-20T20:26:43.048Z,16.40
2018-08-20T20:28:27.466Z,22.60
2018-08-20T20:30:13.394Z,16.20
2018-08-20T20:31:56.586Z,20.40
2018-08-20T20:33:37.370Z,17.20
2018-08-20T20:35:13.381Z,12.40
2018-08-20T20:36:55.997Z,18.40
2018-08-20T20:38:34.367Z,23.80
2018-08-20T20:40:14.895Z,22.40
2018-08-20T20:41:52.697Z,22.40
2018-08-20T20:43:35.744Z,18.40
2018-08-20T20:45:16.645Z,21.80
2018-08-20T20:47:01.344Z,21.80
2018-08-20T20:48:43.745Z,19.80
2018-08-20T20:50:30.262Z,22.00
2018-08-20T20:52:16.565Z,17.40
2018-08-20T20:54:07.350Z,18.00
2018-08-20T20:55:44.310Z,18.60
2018-08-20T20:57:25.406Z,23.40
2018-08-20T20:59:30.943Z,16.60
2018-08-20T21:01:25.853Z,21.40
2018-08-20T21:03:13.505Z,19.40
2018-08-20T21:04:54.129Z,19.20
2018-08-20T21:06:32.807Z,17.20
2018-08-20T21:08:11.783Z,19.20
2018-08-20T21:09:59.657Z,21.20
2018-08-20T21:11:52.487Z,19.40
2018-08-20T21:13:39.333Z,18.00
2018-08-20T21:15:19.705Z,18.20
2018-08-20T21:17:07.492Z,16.00
2018-08-20T21:19:04.163Z,15.40
2018-08-20T21:20:54.434Z,17.60
2018-08-20T21:22:35.604Z,18.60
2018-08-20T21:24:26.673Z,17.80
2018-08-20T21:26:14.327Z,23.60